createdAt,value
2017-07-10T13:13:00.655Z,9948
2017-07-10T13:17:15.894Z,12736
2017-07-10T13:27:23.484Z,30720
2017-07-10T13:37:31.057Z,65888
2017-07-10T13:47:38.381Z,99072
2017-07-10T13:57:45.213Z,94912
2017-07-10T14:07:51.638Z,98944
2017-07-10T14:17:57.869Z,39360
2017-07-10T14:28:04.165Z,71328
2017-07-10T14:38:10.668Z,65184
2017-07-10T14:48:17.328Z,61856
2017-07-10T14:58:24.032Z,23168
2017-07-10T15:08:31.003Z,51424
2017-07-10T15:18:37.767Z,30720
2017-07-10T15:28:44.909Z,23200
2017-07-10T15:38:52.457Z,12924
2017-07-10T15:49:00.341Z,28320
2017-07-10T15:59:07.995Z,36000
2017-07-10T16:09:15.566Z,28064
2017-07-10T16:19:23.050Z,26848
2017-07-10T16:29:30.541Z,11388
2017-07-10T16:39:38.360Z,9148
2017-07-10T16:49:46.137Z,2144
2017-07-10T16:50:20.760Z,2052
2017-07-10T17:00:28.829Z,9840
2017-07-10T17:10:37.127Z,13128
2017-07-10T17:20:45.266Z,26528
2017-07-10T17:30:53.241Z,22304
2017-07-10T17:41:01.221Z,16036
2017-07-10T17:51:09.258Z,12744
2017-07-10T18:01:17.578Z,8104
2017-07-10T18:11:26.098Z,4364
2017-07-10T18:21:34.727Z,1948
2017-07-10T18:31:43.325Z,1668
2017-07-10T18:41:52.100Z,1052
2017-07-10T18:52:00.962Z,1844
2017-07-10T19:02:09.871Z,1628
2017-07-10T19:12:18.725Z,1288
2017-07-10T19:22:27.699Z,800
2017-07-10T19:32:36.527Z,344
2017-07-10T19:42:45.468Z,128
2017-07-10T19:52:54.491Z,32
2017-07-10T20:03:03.409Z,16
2017-07-10T20:13:12.467Z,8
2017-07-10T20:23:21.422Z,0
2017-07-10T20:33:30.448Z,0
2017-07-10T20:43:39.510Z,0
2017-07-10T20:53:48.582Z,0
2017-07-10T21:03:57.646Z,0
2017-07-10T21:14:06.711Z,0
2017-07-10T21:24:15.766Z,0
2017-07-10T21:34:24.884Z,0
2017-07-10T21:44:33.965Z,0
2017-07-10T21:54:43.031Z,0
2017-07-10T22:04:52.016Z,0
2017-07-10T22:15:01.013Z,0
2017-07-10T22:25:10.106Z,0
2017-07-10T22:35:19.221Z,0
2017-07-10T22:45:28.240Z,0
2017-07-10T22:55:37.419Z,0
2017-07-10T23:05:46.600Z,0
2017-07-10T23:15:56.034Z,0
2017-07-10T23:26:04.971Z,0
2017-07-10T23:36:14.259Z,0
2017-07-10T23:46:23.355Z,0
2017-07-10T23:56:32.596Z,0
